Weather at Porac Airfield [CLOSED]

Public forecast

Using degrees Celsius for public forecast. Weather courtesy of forecast.io.

Closest aviation weather report (METAR) to Porac Airfield

Closest report is Diosdado Macapagal International Airport, 6.8 nm (12.7 km) N. Retrieved 2020/09/30 15:00 UTC (7 minutes ago):

RPLC 301500Z 26002KT 8000 FEW020 BKN300 27/24 Q1008 NOSIG RMK A2977

Closest aviation forecast (TAF) to Porac Airfield

Closest forecast is Diosdado Macapagal International Airport, 6.8 nm (12.7 km) N. Retrieved 2020/09/30 12:00 UTC (3 hours ago):

TAF RPLC 301100Z 3012/0118 36006KT 9999 SCT020 BKN300 TX34/0106Z TN25/3022Z TEMPO 3012/3018 02008KT 6000 TS -SHRA FEW015CB SCT020 BKN100